Time;durP1;ratioP1;P1;durP2;ratioP2;P2;SDS_P1;SDS_P2;PMS_P1;PMS_P2;Temp;Humidity;BMP_temperature;BMP_pressure;BME280_temperature;BME280_humidity;BME280_pressure;Samples;Min_cycle;Max_cycle;Signal;HPM_P1;HPM_P2
2022/10/08 00:01:08;;;;;;;12.93;4.15;;;;;;;8.64;78.25;100582.47;5074716;28;20040;-55
2022/10/08 00:03:39;;;;;;;14.73;3.90;;;;;;;8.61;78.76;100578.16;5074873;28;20062;-57
2022/10/08 00:06:12;;;;;;;16.70;3.88;;;;;;;8.65;78.66;100579.69;5074281;28;20047;-55
2022/10/08 00:08:40;;;;;;;10.75;3.88;;;;;;;8.63;78.54;100581.59;5074759;28;20095;-52
2022/10/08 00:11:12;;;;;;;14.00;3.53;;;;;;;8.65;78.67;100584.19;5074621;28;20040;-55
2022/10/08 00:13:40;;;;;;;11.85;3.40;;;;;;;8.62;78.85;100582.56;5074406;28;20085;-57
2022/10/08 00:16:14;;;;;;;16.38;3.85;;;;;;;8.59;78.90;100570.28;5074107;28;20122;-57
2022/10/08 00:18:41;;;;;;;14.52;3.65;;;;;;;8.71;78.50;100578.47;5074250;28;20032;-58
2022/10/08 00:21:16;;;;;;;13.13;4.07;;;;;;;8.80;78.65;100588.63;5074138;28;20032;-55
2022/10/08 00:23:43;;;;;;;12.98;3.40;;;;;;;8.90;78.23;100588.88;5074487;28;20113;-56
2022/10/08 00:26:10;;;;;;;11.95;3.60;;;;;;;8.97;78.02;100587.56;5073005;28;20115;-56
2022/10/08 00:28:37;;;;;;;9.27;3.65;;;;;;;9.04;77.80;100586.22;5073847;28;20324;-56
2022/10/08 00:31:11;;;;;;;11.93;3.80;;;;;;;9.19;77.64;100588.91;5074229;28;20033;-55
2022/10/08 00:33:37;;;;;;;10.55;3.38;;;;;;;9.24;77.36;100581.47;5074244;28;20047;-58
2022/10/08 00:36:09;;;;;;;8.38;3.10;;;;;;;9.38;76.85;100585.94;5073618;28;20103;-55
2022/10/08 00:38:34;;;;;;;12.98;3.92;;;;;;;9.46;76.73;100585.44;5074223;28;20143;-56
2022/10/08 00:41:00;;;;;;;15.07;3.63;;;;;;;9.54;76.22;100579.63;5073599;28;20111;-56
2022/10/08 00:43:41;;;;;;;10.05;3.40;;;;;;;9.59;76.23;100569.47;5073851;28;20434;-56
2022/10/08 00:46:25;;;;;;;13.40;3.47;;;;;;;9.77;75.73;100578.97;5073295;28;20043;-57
2022/10/08 00:49:18;;;;;;;10.43;3.70;;;;;;;9.90;75.13;100580.84;5073765;28;20059;-55
2022/10/08 00:51:54;;;;;;;18.35;3.90;;;;;;;9.92;75.12;100581.59;5073319;28;20055;-55
2022/10/08 00:54:21;;;;;;;9.68;2.85;;;;;;;9.93;74.66;100588.66;5073813;28;20355;-55
2022/10/08 00:56:50;;;;;;;10.40;2.95;;;;;;;9.95;74.62;100585.91;5072909;28;20138;-55
2022/10/08 00:59:16;;;;;;;8.45;2.65;;;;;;;9.99;74.33;100587.41;5073767;28;20047;-57
2022/10/08 01:01:42;;;;;;;15.40;3.55;;;;;;;9.96;74.08;100575.06;5073922;28;20457;-56
2022/10/08 01:04:09;;;;;;;7.93;3.13;;;;;;;10.10;74.15;100597.41;5073557;28;20100;-56
2022/10/08 01:06:44;;;;;;;11.65;3.20;;;;;;;10.20;73.87;100594.00;5073174;28;20110;-55
2022/10/08 01:09:16;;;;;;;9.63;2.70;;;;;;;10.24;73.46;100583.94;5073130;28;20033;-56
2022/10/08 01:11:45;;;;;;;8.55;2.90;;;;;;;10.26;73.61;100594.53;5053594;28;20098;-56
2022/10/08 01:14:38;;;;;;;12.43;2.97;;;;;;;10.32;73.31;100588.78;5060479;28;20037;-56
2022/10/08 01:17:23;;;;;;;12.80;3.10;;;;;;;10.36;73.07;100586.75;5072997;28;20502;-54
2022/10/08 01:20:30;;;;;;;11.77;3.38;;;;;;;10.46;73.07;100586.06;5073195;28;20056;-54
2022/10/08 01:23:16;;;;;;;;;;;;;;;10.70;72.46;100582.66;5073313;28;20035;-57
2022/10/08 01:25:57;;;;;;;11.32;2.90;;;;;;;10.53;71.84;100591.00;5072964;28;19913;-55
2022/10/08 01:28:35;;;;;;;9.77;2.60;;;;;;;10.42;72.41;100589.91;5073246;28;20132;-56
2022/10/08 01:31:17;;;;;;;15.50;3.55;;;;;;;10.44;72.49;100588.00;5072661;28;20103;-60
2022/10/08 01:33:52;;;;;;;21.85;3.20;;;;;;;10.43;72.38;100591.63;5073065;28;20524;-57
2022/10/08 01:36:20;;;;;;;13.77;3.10;;;;;;;10.42;72.16;100592.59;5073076;28;20028;-59
2022/10/08 01:38:53;;;;;;;10.43;3.35;;;;;;;10.44;72.49;100601.38;5072978;28;20123;-56
2022/10/08 01:41:22;;;;;;;13.43;3.42;;;;;;;10.44;72.29;100604.06;5072547;28;20047;-62
2022/10/08 01:43:55;;;;;;;12.50;3.13;;;;;;;10.48;72.28;100597.53;5073125;28;20399;-58
2022/10/08 01:46:25;;;;;;;9.63;2.88;;;;;;;10.54;71.96;100598.06;5072774;28;20089;-57
2022/10/08 01:48:55;;;;;;;13.15;3.40;;;;;;;10.53;71.67;100597.22;5072500;28;20132;-56
2022/10/08 01:51:29;;;;;;;7.72;2.70;;;;;;;10.58;71.76;100602.25;5072031;28;20127;-51
2022/10/08 01:53:55;;;;;;;11.13;3.40;;;;;;;10.56;71.61;100585.44;5072202;28;20043;-56
2022/10/08 01:56:24;;;;;;;8.98;3.15;;;;;;;10.60;71.65;100594.97;5072533;28;20343;-56
2022/10/08 01:58:53;;;;;;;11.25;3.08;;;;;;;10.59;71.55;100585.22;5072917;28;20157;-57
2022/10/08 02:01:37;;;;;;;10.90;3.03;;;;;;;10.68;71.25;100587.28;5072427;28;20036;-57
2022/10/08 02:06:55;;;;;;;13.15;3.35;;;;;;;10.54;71.42;100582.00;5072529;28;20035;-54
2022/10/08 02:09:26;;;;;;;9.05;3.33;;;;;;;10.54;71.23;100593.56;5072600;28;20071;-58
2022/10/08 02:11:52;;;;;;;7.30;2.67;;;;;;;10.52;71.44;100597.31;5072220;28;20047;-52
2022/10/08 02:14:20;;;;;;;12.55;3.72;;;;;;;10.48;71.42;100604.69;5072486;28;20032;-56
2022/10/08 02:17:11;;;;;;;14.13;3.47;;;;;;;10.45;71.84;100589.72;5072352;28;20427;-53
2022/10/08 02:19:58;;;;;;;12.00;3.50;;;;;;;10.44;71.69;100601.38;5071198;28;20032;-57
2022/10/08 02:22:36;;;;;;;8.98;3.40;;;;;;;10.42;71.42;100595.28;5052149;28;20048;-55
2022/10/08 02:25:20;;;;;;;14.40;3.38;;;;;;;10.36;71.95;100603.66;5052349;28;20090;-59
2022/10/08 02:28:02;;;;;;;9.68;3.50;;;;;;;10.43;71.61;100604.16;5051931;28;20103;-57
2022/10/08 02:30:34;;;;;;;11.23;3.30;;;;;;;10.35;71.65;100599.28;5057261;28;20443;-57
2022/10/08 02:33:07;;;;;;;9.23;2.92;;;;;;;10.42;71.67;100605.97;5072101;28;20131;-56
2022/10/08 02:36:01;;;;;;;11.15;3.45;;;;;;;10.56;71.52;100606.84;5072076;28;20031;-57
2022/10/08 02:38:32;;;;;;;11.90;3.60;;;;;;;10.53;71.43;100612.41;5070188;28;20063;-55
2022/10/08 02:41:01;;;;;;;14.05;3.45;;;;;;;10.55;71.13;100599.78;5071851;28;20029;-57
2022/10/08 02:43:30;;;;;;;13.10;3.65;;;;;;;10.58;71.30;100604.91;5071835;28;20024;-55
2022/10/08 02:46:05;;;;;;;12.48;3.60;;;;;;;10.60;71.05;100600.31;5072039;28;20025;-59
2022/10/08 02:48:33;;;;;;;8.07;3.03;;;;;;;10.62;71.00;100601.94;5071841;28;20166;-58
2022/10/08 02:51:09;;;;;;;14.98;3.20;;;;;;;10.68;71.17;100606.03;5075422;28;20056;-57
2022/10/08 02:53:38;;;;;;;9.52;3.42;;;;;;;10.66;71.11;100604.41;5074939;28;20573;-58
2022/10/08 02:56:38;;;;;;;8.52;2.85;;;;;;;10.71;70.89;100599.56;5076073;28;20032;-57
2022/10/08 02:59:05;;;;;;;15.43;3.28;;;;;;;10.73;70.08;100601.19;5052865;28;20320;-59
2022/10/08 03:01:42;;;;;;;11.07;3.55;;;;;;;10.75;70.34;100599.28;5075200;28;20033;-58
2022/10/08 03:04:13;;;;;;;17.42;4.18;;;;;;;10.74;70.13;100596.72;5075546;28;20028;-58
2022/10/08 03:06:39;;;;;;;12.25;3.33;;;;;;;10.72;69.97;100604.84;5075906;28;20123;-56
2022/10/08 03:09:09;;;;;;;13.95;3.38;;;;;;;10.73;70.09;100598.53;5075682;28;20124;-58
2022/10/08 03:11:35;;;;;;;11.18;3.03;;;;;;;10.69;70.46;100589.00;5075276;28;20065;-54
2022/10/08 03:14:08;;;;;;;10.90;3.50;;;;;;;10.74;70.09;100594.88;5075395;28;20024;-52
2022/10/08 03:16:45;;;;;;;13.95;3.10;;;;;;;10.78;70.20;100590.19;5074646;28;20029;-55
2022/10/08 03:19:13;;;;;;;9.63;3.72;;;;;;;10.72;70.45;100585.22;5075449;28;20028;-57
2022/10/08 03:21:41;;;;;;;11.90;3.33;;;;;;;10.72;70.13;100585.22;5075071;28;20374;-56
2022/10/08 03:24:09;;;;;;;14.82;3.95;;;;;;;10.71;70.22;100591.53;5075393;28;20520;-54
2022/10/08 03:26:35;;;;;;;9.70;3.22;;;;;;;10.72;69.92;100596.81;5074210;28;20351;-57
2022/10/08 03:29:00;;;;;;;12.60;3.60;;;;;;;10.71;69.93;100596.91;5075262;28;20032;-55
2022/10/08 03:31:26;;;;;;;13.38;3.55;;;;;;;10.73;69.62;100598.53;5074905;28;20020;-54
2022/10/08 03:33:53;;;;;;;11.27;3.22;;;;;;;10.74;69.87;100588.69;5075862;28;20427;-58
2022/10/08 03:36:20;;;;;;;13.18;3.22;;;;;;;10.75;70.04;100601.94;5074895;28;20300;-57
2022/10/08 03:38:46;;;;;;;13.20;3.60;;;;;;;10.76;69.72;100598.31;5074903;28;20054;-58
2022/10/08 03:41:11;;;;;;;9.90;3.70;;;;;;;10.79;69.57;100599.06;5074607;28;20025;-56
2022/10/08 03:43:37;;;;;;;12.13;3.50;;;;;;;10.79;69.61;100591.88;5075212;28;20028;-58
2022/10/08 03:46:03;;;;;;;9.40;3.10;;;;;;;10.81;69.53;100594.44;5074886;28;20070;-57
2022/10/08 03:48:29;;;;;;;11.93;3.47;;;;;;;10.82;69.45;100598.84;5074940;28;20059;-54
2022/10/08 03:50:57;;;;;;;10.50;3.53;;;;;;;10.85;69.25;100596.81;5074965;28;20044;-55
2022/10/08 03:53:24;;;;;;;7.15;3.17;;;;;;;10.85;69.34;100604.84;5075305;28;20445;-58
2022/10/08 03:55:50;;;;;;;14.43;3.70;;;;;;;10.87;69.14;100604.75;5074855;28;20033;-56
2022/10/08 03:58:16;;;;;;;8.88;3.22;;;;;;;10.91;69.08;100603.56;5074847;28;20063;-56
2022/10/08 04:00:41;;;;;;;12.43;3.78;;;;;;;10.93;69.11;100598.97;5073043;28;20052;-55
2022/10/08 04:03:07;;;;;;;10.90;3.50;;;;;;;10.94;69.02;100598.00;5074668;28;20071;-56
2022/10/08 04:05:33;;;;;;;9.82;2.92;;;;;;;10.97;68.91;100587.06;5074689;28;20362;-56
2022/10/08 04:07:58;;;;;;;7.22;2.70;;;;;;;11.01;69.09;100593.91;5074448;28;20106;-58
2022/10/08 04:10:24;;;;;;;13.60;3.22;;;;;;;11.03;68.52;100593.81;5073490;28;20101;-56
2022/10/08 04:12:49;;;;;;;12.90;2.80;;;;;;;11.06;68.32;100583.72;5073826;28;20040;-56
2022/10/08 04:15:15;;;;;;;9.32;3.50;;;;;;;11.08;68.40;100585.44;5074084;28;20145;-56
2022/10/08 04:17:41;;;;;;;9.13;3.03;;;;;;;11.13;68.55;100588.66;5074002;28;20431;-52
2022/10/08 04:20:07;;;;;;;9.05;2.70;;;;;;;11.13;68.72;100584.16;5074435;28;20107;-60
2022/10/08 04:22:32;;;;;;;10.32;2.70;;;;;;;11.19;68.27;100594.44;5073811;28;20044;-55
2022/10/08 04:24:58;;;;;;;16.10;3.40;;;;;;;11.13;67.93;100578.78;5073903;28;20047;-61
2022/10/08 04:27:23;;;;;;;14.52;3.33;;;;;;;11.29;67.81;100594.63;5074385;28;20084;-59
2022/10/08 04:29:49;;;;;;;10.45;3.15;;;;;;;11.31;67.76;100603.41;5074221;28;20044;-56
2022/10/08 04:32:15;;;;;;;9.13;2.75;;;;;;;11.36;67.37;100602.25;5072949;28;20060;-56
2022/10/08 04:34:41;;;;;;;11.82;2.97;;;;;;;11.37;67.39;100594.09;5074085;28;20370;-55
2022/10/08 04:37:06;;;;;;;10.27;2.80;;;;;;;11.44;67.28;100599.88;5074104;28;20112;-58
2022/10/08 04:39:32;;;;;;;12.32;2.88;;;;;;;11.51;67.23;100598.44;5073033;28;20527;-56
2022/10/08 04:41:57;;;;;;;14.40;3.40;;;;;;;11.55;66.96;100599.94;5073456;28;20028;-55
2022/10/08 04:44:23;;;;;;;11.10;2.88;;;;;;;11.60;66.58;100607.66;5073919;28;20036;-57
2022/10/08 04:46:48;;;;;;;10.55;3.17;;;;;;;11.63;66.36;100611.00;5072797;28;20822;-55
2022/10/08 04:49:13;;;;;;;11.73;3.22;;;;;;;11.65;66.54;100612.72;5072761;28;20040;-56
2022/10/08 04:51:39;;;;;;;14.70;3.70;;;;;;;11.71;65.65;100614.94;5072237;28;20128;-56
2022/10/08 04:54:04;;;;;;;17.52;3.45;;;;;;;11.72;65.99;100616.66;5073823;28;20041;-58
2022/10/08 04:56:31;;;;;;;16.15;3.75;;;;;;;11.73;65.85;100619.22;5072639;28;20056;-56
2022/10/08 04:58:59;;;;;;;12.05;3.30;;;;;;;11.77;65.93;100615.34;5073955;28;20032;-56
2022/10/08 05:01:26;;;;;;;15.05;3.65;;;;;;;11.79;65.60;100623.25;5073075;28;20039;-56
2022/10/08 05:03:53;;;;;;;18.08;3.78;;;;;;;11.83;65.72;100619.41;5073105;28;20033;-59
2022/10/08 05:06:22;;;;;;;15.93;3.78;;;;;;;11.89;65.28;100618.97;5072238;28;20075;-53
2022/10/08 05:08:48;;;;;;;18.55;3.92;;;;;;;11.90;65.28;100633.22;5073379;28;20021;-56
2022/10/08 05:11:14;;;;;;;16.50;3.83;;;;;;;11.93;65.15;100624.94;5072460;28;20036;-59
2022/10/08 05:13:40;;;;;;;15.73;4.18;;;;;;;11.95;64.88;100627.50;5072751;28;20039;-58
2022/10/08 05:16:11;;;;;;;17.13;4.40;;;;;;;11.82;64.88;100596.25;5073301;28;20036;-55
2022/10/08 05:18:38;;;;;;;13.52;3.85;;;;;;;11.97;64.89;100626.44;5073293;28;20060;-57
2022/10/08 05:21:14;;;;;;;18.80;4.47;;;;;;;12.06;65.08;100630.31;5073025;28;20024;-58
2022/10/08 05:23:44;;;;;;;13.30;3.97;;;;;;;11.99;64.89;100619.13;5052418;28;20033;-57
2022/10/08 05:26:16;;;;;;;17.10;4.22;;;;;;;12.07;65.09;100637.41;5063547;28;20119;-55
2022/10/08 05:28:43;;;;;;;15.68;3.78;;;;;;;12.08;64.88;100641.78;5073161;28;20044;-55
2022/10/08 05:31:09;;;;;;;15.68;4.28;;;;;;;12.02;64.61;100618.94;5073040;28;20428;-55
2022/10/08 05:33:35;;;;;;;18.08;4.15;;;;;;;12.08;64.53;100632.88;5072550;28;20028;-58
2022/10/08 05:36:05;;;;;;;17.08;3.85;;;;;;;12.16;64.68;100641.19;5072793;28;20370;-55
2022/10/08 05:38:31;;;;;;;15.63;3.60;;;;;;;12.11;64.44;100633.50;5073105;28;20426;-54
2022/10/08 05:41:07;;;;;;;13.30;3.65;;;;;;;12.17;64.59;100638.41;5073102;28;20128;-55
2022/10/08 05:43:33;;;;;;;10.13;3.55;;;;;;;12.02;64.45;100615.38;5072547;28;20382;-59
2022/10/08 05:45:58;;;;;;;11.98;2.95;;;;;;;12.19;64.20;100641.84;5073024;28;20036;-60
2022/10/08 05:48:24;;;;;;;18.42;3.30;;;;;;;12.23;64.03;100641.59;5072533;28;20111;-60
2022/10/08 05:50:49;;;;;;;11.10;3.28;;;;;;;12.20;63.80;100631.97;5072858;28;20078;-61
2022/10/08 05:53:15;;;;;;;9.63;3.00;;;;;;;12.29;63.69;100633.09;5072400;28;20063;-61
2022/10/08 05:55:40;;;;;;;10.77;2.88;;;;;;;12.33;63.53;100632.75;5072742;28;20108;-60
2022/10/08 05:58:05;;;;;;;9.60;3.10;;;;;;;12.35;63.37;100632.66;5072727;28;20060;-61
2022/10/08 06:00:31;;;;;;;13.15;3.75;;;;;;;12.18;63.22;100607.06;5072678;28;20439;-61
2022/10/08 06:02:56;;;;;;;16.70;4.22;;;;;;;12.38;63.48;100640.47;5072090;28;20103;-61
2022/10/08 06:05:22;;;;;;;9.68;3.42;;;;;;;12.39;63.22;100620.69;5072499;28;20115;-60
2022/10/08 06:07:47;;;;;;;11.43;3.42;;;;;;;12.51;62.74;100634.16;5072732;28;20135;-61
2022/10/08 06:10:13;;;;;;;11.65;3.33;;;;;;;12.58;62.63;100636.25;5072344;28;20033;-61
2022/10/08 06:12:38;;;;;;;10.73;3.20;;;;;;;12.69;61.80;100635.44;5071990;28;20047;-63
2022/10/08 06:15:04;;;;;;;11.82;3.40;;;;;;;12.84;61.76;100629.88;5072613;28;20033;-60
2022/10/08 06:17:30;;;;;;;10.90;3.25;;;;;;;13.05;60.75;100627.31;5072525;28;20028;-62
2022/10/08 06:19:55;;;;;;;8.75;3.10;;;;;;;13.32;60.18;100636.88;5071850;28;20112;-61
2022/10/08 06:22:21;;;;;;;8.82;3.15;;;;;;;13.70;59.07;100626.75;5071835;28;20121;-61
2022/10/08 06:24:46;;;;;;;14.48;4.60;;;;;;;14.08;57.80;100636.22;5071384;28;20060;-61
2022/10/08 06:27:11;;;;;;;12.23;4.00;;;;;;;14.43;56.29;100629.72;5072092;28;20432;-61
2022/10/08 06:29:37;;;;;;;13.15;3.67;;;;;;;14.81;55.24;100632.00;5072401;28;20068;-62
2022/10/08 06:32:02;;;;;;;11.55;3.45;;;;;;;15.14;54.23;100640.84;5071876;28;20490;-60
2022/10/08 06:34:28;;;;;;;12.20;4.07;;;;;;;15.49;53.40;100624.25;5071771;28;20029;-63
2022/10/08 06:36:53;;;;;;;9.40;3.25;;;;;;;16.07;51.29;100641.66;5071398;28;20378;-64
2022/10/08 06:39:19;;;;;;;17.75;3.58;;;;;;;17.28;48.65;100635.00;5072292;28;20058;-63
2022/10/08 06:41:44;;;;;;;15.63;3.72;;;;;;;21.51;39.80;100629.09;5071851;28;20033;-63
2022/10/08 06:44:12;;;;;;;11.82;3.55;;;;;;;23.87;35.00;100627.63;5071984;28;20435;-64
2022/10/08 06:46:38;;;;;;;12.52;3.88;;;;;;;24.29;33.51;100631.50;5071344;28;20052;-65
2022/10/08 06:49:06;;;;;;;10.13;3.50;;;;;;;24.84;32.55;100628.22;5071607;28;20404;-64
2022/10/08 06:51:32;;;;;;;10.95;3.58;;;;;;;25.53;31.09;100624.88;5071973;28;20048;-64
2022/10/08 06:53:58;;;;;;;9.63;3.72;;;;;;;26.36;29.36;100601.94;5072044;28;20041;-63
2022/10/08 06:56:25;;;;;;;15.23;3.85;;;;;;;26.17;29.47;100631.88;5071808;28;20089;-63
2022/10/08 06:58:51;;;;;;;11.95;3.78;;;;;;;25.56;30.58;100635.44;5071341;28;20107;-63
2022/10/08 07:01:21;;;;;;;16.20;3.78;;;;;;;25.28;30.82;100626.19;5071599;28;20040;-62
2022/10/08 07:03:49;;;;;;;14.45;3.13;;;;;;;25.17;30.60;100632.25;5071860;28;20032;-62
2022/10/08 07:06:15;;;;;;;13.18;3.85;;;;;;;25.17;30.25;100619.38;5071890;28;20024;-63
2022/10/08 07:08:41;;;;;;;19.13;3.58;;;;;;;26.11;28.75;100616.22;5071608;28;20028;-64
2022/10/08 07:11:16;;;;;;;10.50;3.40;;;;;;;27.90;25.87;100614.56;5071746;28;20037;-63
2022/10/08 07:13:43;;;;;;;11.82;3.30;;;;;;;28.81;24.71;100623.72;5072140;28;20051;-63
2022/10/08 07:16:11;;;;;;;14.77;3.50;;;;;;;28.21;25.23;100612.94;5071942;28;20123;-65
2022/10/08 07:18:38;;;;;;;10.68;3.05;;;;;;;27.36;26.20;100617.50;5071817;28;20316;-65
2022/10/08 07:21:05;;;;;;;9.30;3.30;;;;;;;26.89;26.81;100611.25;5070842;28;20048;-63
2022/10/08 07:23:32;;;;;;;12.30;3.40;;;;;;;27.36;26.20;100605.66;5071557;28;20028;-63
2022/10/08 07:26:06;;;;;;;10.85;3.45;;;;;;;28.33;25.13;100613.03;5071930;28;20032;-63
2022/10/08 07:28:34;;;;;;;8.43;3.00;;;;;;;28.32;24.53;100614.09;5071355;28;20040;-63
2022/10/08 07:31:11;;;;;;;6.55;2.72;;;;;;;27.25;25.88;100609.94;5070664;28;20032;-63
2022/10/08 07:33:39;;;;;;;6.03;2.58;;;;;;;27.21;25.21;100598.53;5071827;28;20111;-64
2022/10/08 07:36:16;;;;;;;8.70;3.47;;;;;;;27.52;25.94;100607.13;5073631;28;20032;-63
2022/10/08 07:38:42;;;;;;;9.45;2.90;;;;;;;26.36;26.33;100607.44;5075311;28;20523;-64
2022/10/08 07:41:09;;;;;;;9.40;3.38;;;;;;;25.31;27.56;100598.38;5075083;28;20058;-62
2022/10/08 07:43:35;;;;;;;13.93;4.07;;;;;;;24.42;29.53;100603.41;5075622;28;20037;-64
2022/10/08 07:46:01;;;;;;;12.82;3.72;;;;;;;23.72;30.07;100608.53;5075266;28;20093;-63
2022/10/08 07:48:28;;;;;;;13.15;3.30;;;;;;;23.01;31.14;100605.22;5075018;28;20040;-62
2022/10/08 07:50:53;;;;;;;12.38;3.42;;;;;;;22.22;32.19;100606.41;5074707;28;20045;-64
2022/10/08 07:53:19;;;;;;;9.88;3.55;;;;;;;21.47;34.02;100605.97;5075006;28;20351;-63
2022/10/08 07:55:45;;;;;;;10.82;7.15;;;;;;;20.93;35.72;100599.28;5074772;28;20032;-62
2022/10/08 07:58:11;;;;;;;10.27;3.88;;;;;;;20.50;36.04;100600.34;5074682;28;20118;-63
2022/10/08 08:00:38;;;;;;;13.40;3.78;;;;;;;20.16;37.22;100601.31;5075037;28;20025;-65
2022/10/08 08:03:04;;;;;;;16.45;5.25;;;;;;;19.98;38.06;100590.59;5074692;28;20112;-62
2022/10/08 08:05:33;;;;;;;17.65;4.05;;;;;;;19.86;38.67;100591.88;5074243;28;20887;-64
2022/10/08 08:07:58;;;;;;;12.98;3.58;;;;;;;19.66;39.10;100586.75;5074494;28;20040;-64
2022/10/08 08:10:23;;;;;;;9.15;2.92;;;;;;;19.45;38.60;100589.91;5074225;28;20060;-63
2022/10/08 08:12:49;;;;;;;9.88;3.08;;;;;;;19.16;39.60;100566.69;5072853;28;20037;-62
2022/10/08 08:15:14;;;;;;;12.20;3.10;;;;;;;19.13;39.57;100581.44;5074733;28;20407;-64
2022/10/08 08:17:40;;;;;;;16.70;3.95;;;;;;;19.18;41.10;100586.38;5074759;28;20033;-64
2022/10/08 08:20:06;;;;;;;14.20;3.22;;;;;;;19.27;40.79;100585.41;5074580;28;20535;-63
2022/10/08 08:22:32;;;;;;;10.65;3.08;;;;;;;19.39;39.88;100566.13;5073892;28;20036;-65
2022/10/08 08:24:57;;;;;;;11.52;3.70;;;;;;;19.57;39.65;100574.16;5074420;28;20039;-65
2022/10/08 08:27:22;;;;;;;14.82;3.50;;;;;;;19.82;39.37;100580.53;5074456;28;20029;-64
2022/10/08 08:29:48;;;;;;;11.18;3.13;;;;;;;19.90;38.99;100566.94;5074397;28;20086;-65
2022/10/08 08:32:14;;;;;;;6.32;2.33;;;;;;;19.69;38.25;100582.84;5073567;28;20443;-65
2022/10/08 08:34:40;;;;;;;10.25;2.88;;;;;;;19.26;39.10;100575.56;5073781;28;20044;-64
2022/10/08 08:37:05;;;;;;;7.28;2.30;;;;;;;19.03;39.33;100570.69;5073934;28;20112;-62
2022/10/08 08:39:31;;;;;;;12.00;2.90;;;;;;;18.85;39.61;100569.88;5073747;28;20063;-62
2022/10/08 08:42:16;;;;;;;10.07;2.88;;;;;;;18.79;40.50;100574.09;5073478;28;20123;-64
2022/10/08 08:44:45;;;;;;;10.13;2.53;;;;;;;18.42;40.23;100554.34;5073926;28;20114;-65
2022/10/08 08:47:20;;;;;;;7.47;2.28;;;;;;;18.44;40.66;100568.59;5073245;28;20029;-63
2022/10/08 08:49:51;;;;;;;9.43;2.40;;;;;;;18.28;40.56;100573.84;5073069;28;20051;-63
2022/10/08 08:52:24;;;;;;;9.82;2.17;;;;;;;18.00;41.19;100571.19;5072899;28;20040;-63
2022/10/08 08:54:52;;;;;;;9.80;2.78;;;;;;;17.71;41.20;100553.31;5073205;28;20056;-63
2022/10/08 08:57:40;;;;;;;10.90;2.42;;;;;;;17.73;41.41;100565.69;5073111;28;20032;-64
2022/10/08 09:00:16;;;;;;;11.20;2.30;;;;;;;17.53;41.15;100562.25;5073281;28;20040;-63
2022/10/08 09:03:01;;;;;;;7.22;2.22;;;;;;;17.48;41.50;100561.84;5068410;28;20125;-63
2022/10/08 09:05:30;;;;;;;11.43;2.45;;;;;;;17.36;42.03;100556.66;5072868;28;20048;-63
2022/10/08 09:08:11;;;;;;;7.03;2.40;;;;;;;17.41;42.14;100544.50;5073196;28;20037;-63
2022/10/08 09:11:03;;;;;;;7.32;2.58;;;;;;;17.60;42.06;100552.53;5073242;28;20052;-63
2022/10/08 09:13:33;;;;;;;8.07;2.30;;;;;;;17.61;41.66;100537.13;5070817;28;20044;-64
2022/10/08 09:16:00;;;;;;;9.38;2.15;;;;;;;17.84;40.70;100548.34;5073169;28;20537;-64
2022/10/08 09:18:25;;;;;;;8.77;2.10;;;;;;;17.93;39.95;100539.31;5073354;28;20045;-62
2022/10/08 09:20:51;;;;;;;8.57;2.33;;;;;;;17.92;39.97;100531.31;5073033;28;20453;-63
2022/10/08 09:23:23;;;;;;;9.68;2.05;;;;;;;18.15;39.68;100536.31;5069972;28;20732;-63
2022/10/08 09:25:59;;;;;;;6.28;2.28;;;;;;;18.26;39.48;100532.50;5073208;28;20039;-63
2022/10/08 09:28:41;;;;;;;10.68;2.17;;;;;;;18.44;39.56;100519.78;5072944;28;20450;-64
2022/10/08 09:31:28;;;;;;;8.30;2.40;;;;;;;18.53;39.11;100520.69;5072490;28;20039;-64
2022/10/08 09:34:00;;;;;;;11.55;2.20;;;;;;;18.56;38.89;100524.91;5072949;28;20028;-65
2022/10/08 09:36:28;;;;;;;10.98;2.72;;;;;;;18.58;38.48;100518.34;5072964;28;20115;-64
2022/10/08 09:38:58;;;;;;;10.63;1.90;;;;;;;18.73;38.47;100512.34;5072891;28;20025;-64
2022/10/08 09:41:27;;;;;;;6.68;1.95;;;;;;;18.78;38.28;100518.13;5072800;28;20032;-64
2022/10/08 09:44:11;;;;;;;10.02;2.38;;;;;;;18.93;38.58;100510.22;5072871;28;20033;-64
2022/10/08 09:46:37;;;;;;;12.93;2.40;;;;;;;18.81;38.22;100498.81;5072770;28;20044;-64
2022/10/08 09:49:23;;;;;;;6.97;2.00;;;;;;;19.11;38.41;100501.19;5072909;28;20029;-64
2022/10/08 09:51:49;;;;;;;8.98;2.13;;;;;;;18.90;38.20;100494.28;5072816;28;20147;-64
2022/10/08 09:54:28;;;;;;;11.85;2.97;;;;;;;18.83;38.44;100490.53;5072716;28;20238;-64
2022/10/08 09:56:57;;;;;;;12.63;2.72;;;;;;;18.75;38.92;100492.16;5072187;28;20431;-62
2022/10/08 09:59:26;;;;;;;7.85;2.50;;;;;;;18.77;38.54;100492.00;5070801;28;20048;-64
2022/10/08 10:01:54;;;;;;;7.25;2.78;;;;;;;18.73;38.59;100482.50;5072708;28;20347;-63
2022/10/08 10:04:22;;;;;;;9.05;2.42;;;;;;;18.82;38.68;100480.69;5072322;28;20074;-64
2022/10/08 10:06:52;;;;;;;9.50;2.60;;;;;;;18.93;38.55;100478.53;5072357;28;20116;-64
2022/10/08 10:09:36;;;;;;;8.10;2.30;;;;;;;18.97;38.49;100470.91;5070948;28;20075;-63
2022/10/08 10:12:10;;;;;;;7.65;2.20;;;;;;;18.99;38.31;100462.66;5052320;28;20033;-64
2022/10/08 10:14:49;;;;;;;8.55;2.67;;;;;;;18.88;38.28;100467.31;5052078;28;20112;-62
2022/10/08 10:17:32;;;;;;;8.95;2.30;;;;;;;18.61;38.98;100460.25;5051117;28;20367;-63
2022/10/08 10:20:04;;;;;;;9.27;2.40;;;;;;;18.32;38.71;100456.84;5051877;28;20116;-64
2022/10/08 10:22:47;;;;;;;8.63;2.58;;;;;;;18.21;39.40;100451.69;5051888;28;20037;-66
2022/10/08 10:25:38;;;;;;;12.35;2.60;;;;;;;17.95;39.49;100449.75;5052391;28;20029;-63
2022/10/08 10:28:09;;;;;;;7.00;2.33;;;;;;;17.68;39.47;100446.13;5057149;28;20036;-63
2022/10/08 10:30:48;;;;;;;9.18;2.72;;;;;;;17.54;40.24;100455.66;5072090;28;20374;-63
2022/10/08 10:33:19;;;;;;;9.40;2.88;;;;;;;17.22;40.69;100428.09;5071587;28;20033;-68
2022/10/08 10:35:49;;;;;;;12.68;3.10;;;;;;;17.28;40.85;100440.16;5072232;28;20363;-64
2022/10/08 10:38:22;;;;;;;10.80;2.40;;;;;;;17.39;41.03;100435.56;5072208;28;20028;-63
2022/10/08 10:41:12;;;;;;;11.77;2.75;;;;;;;17.54;40.96;100434.00;5072400;28;20395;-66
2022/10/08 10:43:59;;;;;;;10.88;2.40;;;;;;;17.54;40.79;100422.31;5071575;28;20196;-63
2022/10/08 10:46:43;;;;;;;7.22;2.40;;;;;;;17.41;41.12;100425.41;5071863;28;20400;-64
2022/10/08 10:49:25;;;;;;;12.80;2.72;;;;;;;17.27;41.38;100430.34;5071551;28;20110;-63
2022/10/08 10:52:38;;;;;;;11.32;2.70;;;;;;;17.34;41.44;100427.88;5071630;28;20053;-64
2022/10/08 10:55:31;;;;;;;7.78;2.67;;;;;;;17.40;41.48;100423.72;5052140;28;20029;-63
2022/10/08 10:58:09;;;;;;;6.30;2.50;;;;;;;17.36;41.26;100415.91;5055340;28;20520;-63
2022/10/08 11:00:37;;;;;;;10.52;2.63;;;;;;;17.41;40.84;100411.88;5071987;28;20045;-63
2022/10/08 11:03:25;;;;;;;7.80;2.47;;;;;;;17.56;41.04;100413.03;5071865;28;20044;-63
2022/10/08 11:06:04;;;;;;;10.45;2.97;;;;;;;17.48;40.73;100413.81;5071972;28;20024;-63
2022/10/08 11:09:01;;;;;;;9.20;2.65;;;;;;;17.50;41.05;100413.66;5070862;28;20455;-63
2022/10/08 11:11:39;;;;;;;8.15;2.97;;;;;;;17.34;40.88;100409.78;5073975;28;20040;-63
2022/10/08 11:14:23;;;;;;;9.82;2.83;;;;;;;17.16;41.51;100398.94;5075451;28;20028;-64
2022/10/08 11:16:54;;;;;;;8.50;2.38;;;;;;;17.18;41.34;100409.63;5075921;28;20120;-62
2022/10/08 11:19:35;;;;;;;6.70;2.75;;;;;;;17.17;41.89;100407.91;5075203;28;20044;-66
2022/10/08 11:22:14;;;;;;;8.70;2.60;;;;;;;17.02;42.16;100402.19;5075574;28;20024;-63
2022/10/08 11:24:57;;;;;;;8.45;2.33;;;;;;;16.96;41.95;100398.19;5075661;28;20120;-64
2022/10/08 11:27:29;;;;;;;6.47;2.33;;;;;;;17.00;42.01;100390.63;5075268;28;20082;-63
2022/10/08 11:30:10;;;;;;;13.40;2.80;;;;;;;16.84;42.34;100388.56;5074963;28;20101;-63
2022/10/08 11:32:37;;;;;;;13.25;3.08;;;;;;;16.56;42.62;100388.56;5074842;28;20056;-63
2022/10/08 11:35:20;;;;;;;11.80;2.78;;;;;;;16.50;43.07;100388.16;5075428;28;20090;-62
2022/10/08 11:38:07;;;;;;;12.38;2.55;;;;;;;16.36;43.38;100377.84;5074158;28;20459;-63
2022/10/08 11:41:09;;;;;;;10.20;2.90;;;;;;;16.25;43.91;100376.16;5074958;28;20213;-64
2022/10/08 11:43:54;;;;;;;9.70;2.47;;;;;;;16.19;43.91;100374.94;5075231;28;20029;-64